Time;durP1;ratioP1;P1;durP2;ratioP2;P2;SDS_P1;SDS_P2;PMS_P1;PMS_P2;Temp;Humidity;BMP_temperature;BMP_pressure;BME280_temperature;BME280_humidity;BME280_pressure;Samples;Min_cycle;Max_cycle;Signal;HPM_P1;HPM_P2
2023/12/19 00:01:24;;;;;;;17.42;6.93;;;;;;;;;;5040538;28;20181;-70
2023/12/19 00:04:10;;;;;;;21.95;6.28;;;;;;;;;;5052034;28;20060;-69
2023/12/19 00:06:55;;;;;;;14.73;6.03;;;;;;;;;;5054728;28;20074;-66
2023/12/19 00:09:42;;;;;;;17.38;5.30;;;;;;;;;;5054802;28;20025;-66
2023/12/19 00:12:27;;;;;;;11.98;4.55;;;;;;;;;;5052956;28;20025;-66
2023/12/19 00:15:13;;;;;;;15.75;5.00;;;;;;;;;;5052454;28;20025;-66
2023/12/19 00:17:59;;;;;;;15.82;5.65;;;;;;;;;;5054336;28;20497;-66
2023/12/19 00:20:44;;;;;;;12.55;5.80;;;;;;;;;;5054466;28;20024;-66
2023/12/19 00:23:30;;;;;;;11.82;4.60;;;;;;;;;;5054499;28;20024;-66
2023/12/19 00:26:16;;;;;;;18.95;5.03;;;;;;;;;;5052378;28;20045;-66
2023/12/19 00:29:02;;;;;;;8.98;4.68;;;;;;;;;;5053013;28;20017;-66
2023/12/19 00:31:47;;;;;;;15.35;5.22;;;;;;;;;;5054181;28;20078;-66
2023/12/19 00:34:33;;;;;;;18.50;5.28;;;;;;;;;;5052076;28;21972;-66
2023/12/19 00:37:19;;;;;;;14.95;5.03;;;;;;;;;;5051969;28;20033;-66
2023/12/19 00:40:05;;;;;;;15.20;4.90;;;;;;;;;;5053220;28;20032;-66
2023/12/19 00:42:51;;;;;;;16.85;6.03;;;;;;;;;;5051517;28;20032;-66
2023/12/19 00:45:36;;;;;;;18.75;6.35;;;;;;;;;;5054077;28;20072;-66
2023/12/19 00:48:23;;;;;;;16.10;4.60;;;;;;;;;;5051957;28;20131;-66
2023/12/19 00:51:12;;;;;;;10.50;4.85;;;;;;;;;;5052174;28;20031;-66
2023/12/19 00:53:58;;;;;;;18.48;6.10;;;;;;;;;;5052425;28;20115;-66
2023/12/19 00:56:44;;;;;;;15.40;5.20;;;;;;;;;;5054194;28;20032;-66
2023/12/19 00:59:29;;;;;;;12.05;5.55;;;;;;;;;;5053177;28;20033;-66
2023/12/19 01:02:15;;;;;;;17.75;5.45;;;;;;;;;;5052590;28;20394;-66
2023/12/19 01:05:00;;;;;;;16.02;6.40;;;;;;;;;;5053810;28;20049;-66
2023/12/19 01:07:46;;;;;;;16.90;5.85;;;;;;;;;;5051676;28;20074;-66
2023/12/19 01:10:32;;;;;;;16.88;6.20;;;;;;;;;;5053632;28;20453;-66
2023/12/19 01:13:18;;;;;;;27.83;6.82;;;;;;;;;;5052453;28;20087;-66
2023/12/19 01:16:04;;;;;;;13.07;5.63;;;;;;;;;;5052204;28;20020;-66
2023/12/19 01:18:50;;;;;;;24.00;6.38;;;;;;;;;;5052460;28;20110;-66
2023/12/19 01:21:36;;;;;;;20.05;6.38;;;;;;;;;;5052828;28;20027;-66
2023/12/19 01:24:22;;;;;;;13.98;5.43;;;;;;;;;;5051531;28;20029;-66
2023/12/19 01:27:08;;;;;;;18.17;5.25;;;;;;;;;;5054027;28;20025;-66
2023/12/19 01:29:53;;;;;;;30.33;6.68;;;;;;;;;;5073709;22;20521;-69
2023/12/19 01:32:39;;;;;;;19.40;5.60;;;;;;;;;;5051542;28;20433;-69
2023/12/19 01:35:24;;;;;;;27.15;6.78;;;;;;;;;;5038766;28;20021;-70
2023/12/19 01:38:10;;;;;;;28.85;7.20;;;;;;;;;;5044768;28;20104;-70
2023/12/19 01:40:56;;;;;;;39.33;7.93;;;;;;;;;;5050193;28;20021;-70
2023/12/19 01:43:41;;;;;;;46.15;9.80;;;;;;;;;;5050344;28;20032;-70
2023/12/19 01:46:28;;;;;;;32.90;8.02;;;;;;;;;;5052919;28;20036;-70
2023/12/19 01:49:14;;;;;;;38.15;8.35;;;;;;;;;;5051278;28;20534;-70
2023/12/19 01:51:59;;;;;;;33.97;9.82;;;;;;;;;;5048994;28;20032;-70
2023/12/19 01:54:45;;;;;;;41.97;9.77;;;;;;;;;;5050320;28;20029;-70
2023/12/19 01:57:31;;;;;;;33.47;8.70;;;;;;;;;;5051587;28;20024;-70
2023/12/19 02:00:16;;;;;;;27.20;8.10;;;;;;;;;;5047001;28;20025;-70
2023/12/19 02:03:03;;;;;;;26.55;8.20;;;;;;;;;;5043986;28;20025;-70
2023/12/19 02:05:50;;;;;;;23.17;8.15;;;;;;;;;;5045447;28;20022;-70
2023/12/19 02:08:35;;;;;;;38.90;9.10;;;;;;;;;;5033236;28;20022;-70
2023/12/19 02:11:21;;;;;;;46.90;7.95;;;;;;;;;;5050740;28;20167;-69
2023/12/19 02:14:07;;;;;;;36.55;6.68;;;;;;;;;;5051245;28;20017;-69
2023/12/19 02:16:52;;;;;;;27.70;6.85;;;;;;;;;;5052419;28;20041;-70
2023/12/19 02:19:45;;;;;;;25.73;5.22;;;;;;;;;;5052236;28;20053;-69
2023/12/19 02:22:30;;;;;;;30.15;6.25;;;;;;;;;;5050375;28;20052;-69
2023/12/19 02:25:18;;;;;;;29.27;7.35;;;;;;;;;;5049743;28;20017;-69
2023/12/19 02:28:06;;;;;;;20.80;6.10;;;;;;;;;;5051138;28;20028;-69
2023/12/19 02:30:52;;;;;;;27.65;5.95;;;;;;;;;;5043390;28;20204;-69
2023/12/19 02:33:38;;;;;;;28.63;6.65;;;;;;;;;;5034457;28;20033;-69
2023/12/19 02:36:23;;;;;;;22.75;7.05;;;;;;;;;;5040213;28;20049;-69
2023/12/19 02:39:10;;;;;;;37.67;6.78;;;;;;;;;;5037494;28;20034;-70
2023/12/19 02:42:13;;;;;;;31.95;7.35;;;;;;;;;;5035053;28;20030;-70
2023/12/19 02:44:59;;;;;;;21.77;6.03;;;;;;;;;;5034449;28;20029;-70
2023/12/19 02:47:44;;;;;;;14.45;5.32;;;;;;;;;;5035029;28;20029;-70
2023/12/19 02:50:30;;;;;;;10.30;4.30;;;;;;;;;;5035131;28;20079;-70
2023/12/19 02:53:16;;;;;;;12.65;4.70;;;;;;;;;;5034232;28;20022;-70
2023/12/19 02:56:01;;;;;;;19.40;5.80;;;;;;;;;;5035529;28;20029;-70
2023/12/19 02:58:47;;;;;;;15.38;5.40;;;;;;;;;;5037325;28;20060;-69
2023/12/19 03:01:33;;;;;;;14.23;4.43;;;;;;;;;;5034217;28;20029;-70
2023/12/19 03:04:18;;;;;;;12.63;4.50;;;;;;;;;;5049456;28;20417;-70
2023/12/19 03:07:04;;;;;;;9.68;4.65;;;;;;;;;;5053515;28;20020;-70
2023/12/19 03:09:50;;;;;;;13.55;5.28;;;;;;;;;;5053810;28;20513;-70
2023/12/19 03:12:36;;;;;;;19.75;5.53;;;;;;;;;;5055432;28;20033;-69
2023/12/19 03:15:21;;;;;;;23.13;6.22;;;;;;;;;;5053583;28;20024;-69
2023/12/19 03:18:07;;;;;;;25.75;6.05;;;;;;;;;;5053204;28;20383;-70
2023/12/19 03:20:52;;;;;;;37.53;6.75;;;;;;;;;;5053586;28;20029;-70
2023/12/19 03:23:38;;;;;;;21.90;5.82;;;;;;;;;;5054967;28;20028;-70
2023/12/19 03:26:24;;;;;;;23.00;6.93;;;;;;;;;;5052892;28;20051;-69
2023/12/19 03:29:10;;;;;;;20.40;5.45;;;;;;;;;;5055326;28;20367;-69
2023/12/19 03:31:55;;;;;;;21.95;5.55;;;;;;;;;;5053128;28;20109;-69
2023/12/19 03:34:41;;;;;;;19.17;6.40;;;;;;;;;;5052800;28;20036;-69
2023/12/19 03:37:27;;;;;;;29.42;7.78;;;;;;;;;;5054725;28;20017;-69
2023/12/19 03:40:12;;;;;;;31.27;7.28;;;;;;;;;;5054164;28;20051;-69
2023/12/19 03:42:58;;;;;;;27.52;6.88;;;;;;;;;;5040966;28;20032;-69
2023/12/19 03:45:43;;;;;;;29.42;6.85;;;;;;;;;;5033527;28;20018;-69
2023/12/19 03:48:30;;;;;;;26.02;6.90;;;;;;;;;;5036203;28;20433;-69
2023/12/19 03:51:15;;;;;;;19.92;6.43;;;;;;;;;;5033569;28;20021;-69
2023/12/19 03:54:01;;;;;;;24.48;6.80;;;;;;;;;;5032445;28;20175;-70
2023/12/19 03:56:46;;;;;;;28.63;7.15;;;;;;;;;;5034360;28;20021;-69
2023/12/19 03:59:32;;;;;;;27.58;6.43;;;;;;;;;;5033992;28;20570;-70
2023/12/19 04:02:18;;;;;;;45.60;8.00;;;;;;;;;;5033453;28;20402;-70
2023/12/19 04:05:04;;;;;;;20.55;7.38;;;;;;;;;;5042756;28;20021;-69
2023/12/19 04:07:49;;;;;;;29.88;8.35;;;;;;;;;;5051604;28;20028;-69
2023/12/19 04:10:35;;;;;;;50.72;8.95;;;;;;;;;;5054430;28;20025;-69
2023/12/19 04:13:21;;;;;;;37.35;7.85;;;;;;;;;;5053751;28;20021;-69
2023/12/19 04:16:07;;;;;;;31.27;7.07;;;;;;;;;;5049334;28;20083;-69
2023/12/19 04:18:53;;;;;;;42.03;8.27;;;;;;;;;;5052434;28;20033;-69
2023/12/19 04:21:40;;;;;;;44.67;9.18;;;;;;;;;;5048786;28;20017;-70
2023/12/19 04:24:26;;;;;;;30.10;8.15;;;;;;;;;;5052342;28;20078;-70
2023/12/19 04:27:12;;;;;;;48.53;8.35;;;;;;;;;;5052420;28;20111;-69
2023/12/19 04:29:58;;;;;;;41.10;7.70;;;;;;;;;;5041982;28;20036;-69
2023/12/19 04:32:43;;;;;;;50.42;9.48;;;;;;;;;;5051854;28;20494;-69
2023/12/19 04:35:30;;;;;;;44.42;8.70;;;;;;;;;;5044529;28;20411;-69
2023/12/19 04:38:15;;;;;;;30.58;7.10;;;;;;;;;;5048596;28;20088;-69
2023/12/19 04:41:01;;;;;;;39.53;8.45;;;;;;;;;;5051273;28;20486;-69
2023/12/19 04:43:46;;;;;;;32.03;8.88;;;;;;;;;;5037977;28;20037;-70
2023/12/19 04:46:32;;;;;;;50.53;7.93;;;;;;;;;;5032278;28;20026;-69
2023/12/19 04:49:18;;;;;;;36.78;8.10;;;;;;;;;;5033081;28;20052;-69
2023/12/19 04:52:04;;;;;;;43.65;8.32;;;;;;;;;;5045534;28;20142;-69
2023/12/19 04:54:50;;;;;;;46.45;9.13;;;;;;;;;;5051609;28;20025;-69
2023/12/19 04:57:36;;;;;;;38.92;9.02;;;;;;;;;;5050903;28;20053;-70
2023/12/19 05:00:21;;;;;;;37.17;9.20;;;;;;;;;;5052646;28;20032;-69
2023/12/19 05:03:07;;;;;;;38.78;7.60;;;;;;;;;;5051370;28;20036;-69
2023/12/19 05:05:52;;;;;;;32.22;6.63;;;;;;;;;;5048756;28;20049;-69
2023/12/19 05:08:38;;;;;;;44.22;7.90;;;;;;;;;;5053036;28;20029;-70
2023/12/19 05:11:24;;;;;;;31.55;7.20;;;;;;;;;;5044484;28;20475;-69
2023/12/19 05:14:10;;;;;;;32.83;7.90;;;;;;;;;;5031775;28;20146;-69
2023/12/19 05:16:56;;;;;;;45.95;10.57;;;;;;;;;;5033693;28;20033;-69
2023/12/19 05:19:41;;;;;;;49.72;8.02;;;;;;;;;;5033338;28;20518;-69
2023/12/19 05:22:28;;;;;;;36.60;9.65;;;;;;;;;;5032936;28;20034;-69
2023/12/19 05:25:14;;;;;;;41.00;7.75;;;;;;;;;;5031787;28;20022;-69
2023/12/19 05:27:59;;;;;;;32.53;8.02;;;;;;;;;;5031305;28;20026;-69
2023/12/19 05:30:45;;;;;;;39.10;7.30;;;;;;;;;;5034532;28;20036;-69
2023/12/19 05:33:32;;;;;;;34.58;7.53;;;;;;;;;;5032203;28;20562;-69
2023/12/19 05:36:18;;;;;;;45.88;8.20;;;;;;;;;;5032800;28;20029;-69
2023/12/19 05:39:04;;;;;;;29.17;7.25;;;;;;;;;;5030992;28;20025;-69
2023/12/19 05:41:51;;;;;;;37.38;7.97;;;;;;;;;;5047936;28;20021;-69
2023/12/19 05:44:37;;;;;;;33.92;7.75;;;;;;;;;;5050142;28;20024;-69
2023/12/19 05:47:22;;;;;;;28.40;8.02;;;;;;;;;;5040757;28;20506;-69
2023/12/19 05:50:08;;;;;;;34.20;8.55;;;;;;;;;;5036073;28;20052;-69
2023/12/19 05:52:54;;;;;;;33.67;7.78;;;;;;;;;;5039291;28;20072;-69
2023/12/19 05:55:42;;;;;;;44.78;7.85;;;;;;;;;;5044412;28;20075;-70
2023/12/19 05:58:27;;;;;;;31.77;7.57;;;;;;;;;;5050137;28;20106;-69
2023/12/19 06:01:13;;;;;;;44.22;7.88;;;;;;;;;;5043360;28;20033;-70
2023/12/19 06:03:59;;;;;;;34.97;7.85;;;;;;;;;;5031097;28;20025;-70
2023/12/19 06:06:45;;;;;;;37.35;7.40;;;;;;;;;;5030794;28;20479;-69
2023/12/19 06:09:31;;;;;;;34.25;8.20;;;;;;;;;;5035160;28;20372;-69
2023/12/19 06:12:17;;;;;;;28.67;7.28;;;;;;;;;;5035268;28;20026;-70
2023/12/19 06:15:08;;;;;;;30.67;7.95;;;;;;;;;;5034433;28;20096;-69
2023/12/19 06:17:53;;;;;;;24.65;6.68;;;;;;;;;;5034021;28;20026;-69
2023/12/19 06:20:40;;;;;;;24.35;7.40;;;;;;;;;;5036716;28;20509;-70
2023/12/19 06:23:26;;;;;;;32.40;7.80;;;;;;;;;;5034093;28;20080;-69
2023/12/19 06:26:12;;;;;;;20.58;6.65;;;;;;;;;;5035440;28;20017;-69
2023/12/19 06:28:59;;;;;;;28.60;5.88;;;;;;;;;;5035274;28;20026;-69
2023/12/19 06:31:45;;;;;;;29.95;6.80;;;;;;;;;;5034618;28;20033;-69
2023/12/19 06:34:31;;;;;;;23.23;5.78;;;;;;;;;;5033409;28;20030;-69
2023/12/19 06:37:16;;;;;;;21.23;5.22;;;;;;;;;;5035080;28;20028;-70
2023/12/19 06:40:03;;;;;;;22.55;5.97;;;;;;;;;;5034161;28;20021;-69
2023/12/19 06:42:50;;;;;;;16.13;5.28;;;;;;;;;;5033787;28;20160;-69
2023/12/19 06:45:36;;;;;;;21.15;5.75;;;;;;;;;;5034602;28;20475;-69
2023/12/19 06:48:23;;;;;;;16.77;6.18;;;;;;;;;;5035221;28;20056;-70
2023/12/19 06:51:09;;;;;;;19.90;5.53;;;;;;;;;;5034773;28;20045;-70
2023/12/19 06:53:55;;;;;;;17.05;5.32;;;;;;;;;;5034907;28;20021;-70
2023/12/19 06:56:41;;;;;;;22.25;6.55;;;;;;;;;;5033084;28;20034;-70
2023/12/19 06:59:27;;;;;;;17.83;5.78;;;;;;;;;;5034049;28;20029;-69
2023/12/19 07:02:13;;;;;;;18.00;7.25;;;;;;;;;;5033355;28;20034;-70
2023/12/19 07:04:59;;;;;;;16.42;6.25;;;;;;;;;;5035196;28;20495;-69
2023/12/19 07:07:47;;;;;;;9.13;5.10;;;;;;;;;;5034952;28;20491;-70
2023/12/19 07:10:33;;;;;;;15.07;4.70;;;;;;;;;;5034196;28;20022;-70
2023/12/19 07:13:19;;;;;;;19.55;5.55;;;;;;;;;;5035604;28;20032;-70
2023/12/19 07:16:06;;;;;;;12.93;5.13;;;;;;;;;;5032415;28;20105;-70
2023/12/19 07:18:51;;;;;;;21.38;5.32;;;;;;;;;;5034610;28;20476;-70
2023/12/19 07:21:37;;;;;;;20.45;6.28;;;;;;;;;;5034428;28;20483;-70
2023/12/19 07:24:23;;;;;;;14.80;5.93;;;;;;;;;;5033808;28;20025;-70
2023/12/19 07:27:08;;;;;;;20.25;5.80;;;;;;;;;;5035997;28;20018;-70
2023/12/19 07:29:54;;;;;;;10.90;5.82;;;;;;;;;;5034724;28;20478;-69
2023/12/19 07:32:40;;;;;;;16.42;6.85;;;;;;;;;;5085607;23;20503;-66
2023/12/19 07:35:25;;;;;;;21.52;6.82;;;;;;;;;;5034039;28;20025;-66
2023/12/19 07:38:11;;;;;;;13.82;5.05;;;;;;;;;;5020011;28;20045;-66
2023/12/19 07:40:57;;;;;;;16.52;6.53;;;;;;;;;;5016707;28;20026;-66
2023/12/19 07:43:42;;;;;;;18.85;5.50;;;;;;;;;;5015245;28;20037;-66
2023/12/19 07:46:28;;;;;;;12.73;6.18;;;;;;;;;;5014600;28;20017;-67
2023/12/19 07:49:14;;;;;;;18.20;6.82;;;;;;;;;;5013753;28;20026;-66
2023/12/19 07:51:59;;;;;;;21.90;5.18;;;;;;;;;;5013971;28;20514;-66
2023/12/19 07:54:45;;;;;;;12.57;5.13;;;;;;;;;;5014096;28;20034;-66
2023/12/19 07:57:31;;;;;;;11.57;5.28;;;;;;;;;;5013133;28;20061;-66
2023/12/19 08:00:17;;;;;;;17.23;5.93;;;;;;;;;;5019938;28;20118;-66
2023/12/19 08:03:03;;;;;;;15.90;4.80;;;;;;;;;;5029422;28;20507;-66
2023/12/19 08:05:50;;;;;;;12.65;5.10;;;;;;;;;;5033857;28;20491;-66
2023/12/19 08:08:36;;;;;;;18.08;5.78;;;;;;;;;;5033079;28;20036;-66
2023/12/19 08:11:21;;;;;;;8.98;4.55;;;;;;;;;;5031895;28;20125;-67
2023/12/19 08:14:07;;;;;;;10.40;5.18;;;;;;;;;;5033627;28;20025;-66
2023/12/19 08:16:53;;;;;;;15.07;6.68;;;;;;;;;;5032937;28;20049;-66
2023/12/19 08:19:39;;;;;;;18.83;5.60;;;;;;;;;;5032197;28;20410;-67
2023/12/19 08:22:24;;;;;;;13.98;5.85;;;;;;;;;;5033657;28;20052;-66
2023/12/19 08:25:10;;;;;;;12.18;5.57;;;;;;;;;;5032184;28;20018;-66
2023/12/19 08:27:56;;;;;;;19.58;6.20;;;;;;;;;;5030978;28;20066;-66
2023/12/19 08:30:41;;;;;;;13.52;4.80;;;;;;;;;;5032238;28;20029;-67
2023/12/19 08:33:27;;;;;;;16.75;5.53;;;;;;;;;;5024201;28;20033;-66
2023/12/19 08:36:13;;;;;;;11.50;4.85;;;;;;;;;;5013254;28;20049;-66
2023/12/19 08:38:59;;;;;;;14.40;5.50;;;;;;;;;;5011673;28;20018;-67
2023/12/19 08:41:46;;;;;;;12.73;4.78;;;;;;;;;;5027872;28;20025;-66
2023/12/19 08:44:32;;;;;;;17.08;6.07;;;;;;;;;;5032928;28;20113;-67
2023/12/19 08:47:17;;;;;;;9.02;4.18;;;;;;;;;;5023918;28;20022;-66
2023/12/19 08:50:07;;;;;;;13.43;4.95;;;;;;;;;;5012317;28;20026;-67
2023/12/19 08:52:53;;;;;;;13.20;5.15;;;;;;;;;;5022504;28;20025;-66
2023/12/19 08:55:39;;;;;;;14.25;6.13;;;;;;;;;;5031373;28;20149;-67
2023/12/19 08:58:25;;;;;;;13.73;6.28;;;;;;;;;;5027982;28;20021;-66
2023/12/19 09:01:10;;;;;;;11.98;4.45;;;;;;;;;;5033323;28;20112;-68
2023/12/19 09:03:56;;;;;;;12.50;4.85;;;;;;;;;;5031779;28;20112;-67
2023/12/19 09:06:44;;;;;;;11.00;5.13;;;;;;;;;;5033157;28;20017;-67
2023/12/19 09:09:29;;;;;;;12.25;5.20;;;;;;;;;;5031970;28;20116;-67
2023/12/19 09:12:15;;;;;;;14.32;5.63;;;;;;;;;;5031250;28;20024;-67
2023/12/19 09:15:02;;;;;;;11.98;4.75;;;;;;;;;;5031969;28;20048;-67
2023/12/19 09:17:48;;;;;;;10.48;3.95;;;;;;;;;;5031538;28;20025;-67
2023/12/19 09:20:33;;;;;;;11.20;5.38;;;;;;;;;;5033112;28;20510;-67
2023/12/19 09:23:19;;;;;;;10.88;5.07;;;;;;;;;;5032543;28;20030;-67
2023/12/19 09:26:05;;;;;;;12.63;4.38;;;;;;;;;;5031836;28;20025;-67
2023/12/19 09:28:50;;;;;;;13.52;4.20;;;;;;;;;;5032290;28;20021;-68
2023/12/19 09:31:36;;;;;;;11.95;3.58;;;;;;;;;;5024353;28;20028;-67
2023/12/19 09:34:21;;;;;;;9.55;4.30;;;;;;;;;;5030839;28;20140;-67
2023/12/19 09:37:07;;;;;;;12.65;4.93;;;;;;;;;;5028400;28;20029;-68
2023/12/19 09:39:53;;;;;;;15.00;4.38;;;;;;;;;;5010030;28;20410;-67
2023/12/19 09:42:39;;;;;;;12.43;4.38;;;;;;;;;;5015637;28;20045;-67
2023/12/19 09:45:24;;;;;;;13.68;4.60;;;;;;;;;;5011709;28;20022;-67
2023/12/19 09:48:12;;;;;;;10.95;4.22;;;;;;;;;;5010931;28;20087;-68
2023/12/19 09:51:01;;;;;;;21.58;5.30;;;;;;;;;;5030209;28;20082;-67
2023/12/19 09:53:48;;;;;;;16.98;5.03;;;;;;;;;;5030876;28;20029;-67
2023/12/19 09:56:34;;;;;;;19.50;4.78;;;;;;;;;;5028101;28;20479;-67
2023/12/19 09:59:21;;;;;;;15.55;5.60;;;;;;;;;;5029555;28;20029;-67
2023/12/19 10:02:06;;;;;;;18.13;4.93;;;;;;;;;;5023951;28;20030;-67
2023/12/19 10:04:52;;;;;;;11.57;4.75;;;;;;;;;;5024847;28;20179;-67
2023/12/19 10:07:38;;;;;;;15.80;4.90;;;;;;;;;;5021686;28;20057;-67
2023/12/19 10:10:53;;;;;;;12.07;5.40;;;;;;;;;;5019698;28;20499;-67
2023/12/19 10:13:38;;;;;;;16.88;4.82;;;;;;;;;;5030048;28;20101;-67
2023/12/19 10:16:24;;;;;;;12.45;4.82;;;;;;;;;;5031817;28;20028;-67
2023/12/19 10:19:13;;;;;;;11.75;4.70;;;;;;;;;;5030572;28;20024;-68
2023/12/19 10:22:19;;;;;;;13.80;5.20;;;;;;;;;;5030171;28;20452;-67
2023/12/19 10:25:07;;;;;;;16.27;6.57;;;;;;;;;;5029438;28;20084;-67
2023/12/19 10:28:07;;;;;;;15.48;4.97;;;;;;;;;;5029387;28;20491;-67
2023/12/19 10:31:15;;;;;;;16.58;4.63;;;;;;;;;;5030706;28;20028;-67
2023/12/19 10:34:04;;;;;;;12.57;4.28;;;;;;;;;;5029935;28;20116;-67
2023/12/19 10:36:49;;;;;;;14.95;5.75;;;;;;;;;;5030247;28;20056;-67
2023/12/19 10:39:35;;;;;;;12.20;5.05;;;;;;;;;;5029333;28;20025;-67
2023/12/19 10:42:21;;;;;;;14.98;6.07;;;;;;;;;;5031133;28;20021;-67
2023/12/19 10:45:07;;;;;;;10.07;4.03;;;;;;;;;;5010728;28;20018;-67
2023/12/19 10:47:53;;;;;;;11.02;4.40;;;;;;;;;;4996440;28;20100;-67
2023/12/19 10:50:38;;;;;;;18.05;5.20;;;;;;;;;;5030258;28;20125;-67
2023/12/19 10:53:24;;;;;;;12.65;4.30;;;;;;;;;;5030000;28;20029;-67
2023/12/19 10:56:11;;;;;;;9.85;3.97;;;;;;;;;;5031043;28;20384;-67
2023/12/19 10:59:00;;;;;;;11.50;3.10;;;;;;;;;;5032760;28;20105;-67
2023/12/19 11:01:47;;;;;;;5.93;3.17;;;;;;;;;;5033351;28;20017;-67
2023/12/19 11:04:38;;;;;;;15.95;4.35;;;;;;;;;;5035033;28;20029;-67
2023/12/19 11:07:26;;;;;;;6.57;3.83;;;;;;;;;;5031728;28;20478;-67
2023/12/19 11:10:13;;;;;;;8.85;3.17;;;;;;;;;;5033000;28;20032;-69
2023/12/19 11:12:58;;;;;;;8.50;3.65;;;;;;;;;;5032621;28;20104;-69
2023/12/19 11:15:50;;;;;;;9.23;2.97;;;;;;;;;;5031711;28;20029;-69
2023/12/19 11:18:50;;;;;;;18.33;4.28;;;;;;;;;;5032798;28;20494;-68
2023/12/19 11:22:04;;;;;;;14.25;4.55;;;;;;;;;;5033530;28;20026;-69
2023/12/19 11:24:55;;;;;;;16.23;4.63;;;;;;;;;;5032847;28;20398;-69
2023/12/19 11:27:46;;;;;;;12.05;4.13;;;;;;;;;;5032813;28;20498;-69
2023/12/19 11:30:36;;;;;;;11.23;3.80;;;;;;;;;;5032379;28;20035;-68
2023/12/19 11:33:29;;;;;;;13.68;4.43;;;;;;;;;;5013768;28;20521;-69
2023/12/19 11:36:15;;;;;;;13.23;4.50;;;;;;;;;;5014402;28;20080;-69
2023/12/19 11:39:31;;;;;;;9.55;3.90;;;;;;;;;;5015029;28;20593;-69
2023/12/19 11:42:38;;;;;;;8.55;3.70;;;;;;;;;;5013910;28;20028;-69
2023/12/19 11:45:26;;;;;;;12.68;4.10;;;;;;;;;;5018507;28;20013;-69
2023/12/19 11:48:34;;;;;;;8.77;2.85;;;;;;;;;;5033276;28;20021;-69
2023/12/19 11:51:55;;;;;;;10.32;2.83;;;;;;;;;;5032446;28;20025;-69
2023/12/19 11:54:40;;;;;;;9.10;2.72;;;;;;;;;;4992086;28;20109;-69
2023/12/19 11:57:27;;;;;;;7.32;2.60;;;;;;;;;;5022173;28;20160;-69
2023/12/19 12:00:13;;;;;;;13.27;3.28;;;;;;;;;;5014623;28;20026;-69
2023/12/19 12:03:06;;;;;;;13.23;2.75;;;;;;;;;;5015758;28;20033;-69
2023/12/19 12:05:54;;;;;;;7.80;2.88;;;;;;;;;;5033047;28;20021;-69
2023/12/19 12:08:40;;;;;;;7.18;3.80;;;;;;;;;;5021399;28;20033;-69
2023/12/19 12:11:25;;;;;;;8.25;2.58;;;;;;;;;;5046331;28;20024;-69
2023/12/19 12:14:11;;;;;;;14.23;3.45;;;;;;;;;;5051073;28;20051;-69
2023/12/19 12:16:57;;;;;;;6.80;2.95;;;;;;;;;;5051463;28;20028;-69
2023/12/19 12:19:42;;;;;;;9.60;3.10;;;;;;;;;;5053626;28;20116;-69
2023/12/19 12:22:28;;;;;;;7.00;3.78;;;;;;;;;;5054072;28;20059;-69
2023/12/19 12:25:15;;;;;;;8.20;3.50;;;;;;;;;;5053603;28;20390;-69
2023/12/19 12:28:11;;;;;;;10.35;3.97;;;;;;;;;;5053089;28;20025;-69
2023/12/19 12:30:59;;;;;;;6.00;2.45;;;;;;;;;;5050993;28;20021;-69
2023/12/19 12:33:45;;;;;;;26.60;2.83;;;;;;;;;;5052510;28;20025;-68
2023/12/19 12:36:30;;;;;;;8.90;3.38;;;;;;;;;;5051732;28;20101;-69
2023/12/19 12:39:20;;;;;;;12.45;4.70;;;;;;;;;;5051055;28;20025;-69
2023/12/19 12:42:07;;;;;;;5.10;2.90;;;;;;;;;;5052610;28;20071;-69
2023/12/19 12:45:04;;;;;;;7.40;2.65;;;;;;;;;;5050435;28;20048;-69
2023/12/19 12:47:50;;;;;;;6.38;3.10;;;;;;;;;;5052872;28;20033;-68
2023/12/19 12:50:35;;;;;;;8.25;2.35;;;;;;;;;;5052898;28;20021;-69
2023/12/19 12:53:21;;;;;;;5.50;2.45;;;;;;;;;;5053287;28;20025;-68
2023/12/19 12:56:13;;;;;;;5.68;2.80;;;;;;;;;;5053249;28;20078;-69
2023/12/19 12:59:07;;;;;;;15.45;3.13;;;;;;;;;;5051168;28;20112;-69
2023/12/19 13:01:55;;;;;;;9.65;3.05;;;;;;;;;;5051483;28;20033;-69
2023/12/19 13:04:40;;;;;;;17.48;3.22;;;;;;;;;;5052536;28;20486;-69
2023/12/19 13:07:26;;;;;;;9.32;2.83;;;;;;;;;;5052498;28;20086;-69
2023/12/19 13:10:11;;;;;;;12.02;2.65;;;;;;;;;;5053799;28;20033;-69
2023/12/19 13:12:57;;;;;;;9.73;3.40;;;;;;;;;;5051171;28;20049;-68
2023/12/19 13:15:43;;;;;;;11.18;2.90;;;;;;;;;;5054361;28;20054;-69
2023/12/19 13:18:28;;;;;;;12.45;3.30;;;;;;;;;;5051660;28;20086;-69
2023/12/19 13:21:14;;;;;;;11.10;4.15;;;;;;;;;;5051875;28;20052;-69
2023/12/19 13:23:59;;;;;;;9.98;2.80;;;;;;;;;;5051579;28;20490;-69
2023/12/19 13:26:45;;;;;;;11.63;3.78;;;;;;;;;;5052232;28;20093;-69
2023/12/19 13:29:33;;;;;;;10.10;4.95;;;;;;;;;;5051347;28;20021;-68
2023/12/19 13:32:18;;;;;;;9.80;3.33;;;;;;;;;;5071189;22;20029;-69
2023/12/19 13:35:06;;;;;;;15.23;4.72;;;;;;;;;;4995644;28;20038;-70
2023/12/19 13:37:51;;;;;;;10.98;5.68;;;;;;;;;;4993958;28;20577;-70
2023/12/19 13:40:37;;;;;;;17.55;4.25;;;;;;;;;;4992438;28;20069;-70
2023/12/19 13:43:23;;;;;;;10.18;4.45;;;;;;;;;;4992764;28;20025;-70
2023/12/19 13:46:09;;;;;;;17.55;4.53;;;;;;;;;;4992960;28;20025;-70
2023/12/19 13:48:56;;;;;;;14.93;5.80;;;;;;;;;;4991888;28;20484;-70
2023/12/19 13:51:41;;;;;;;10.35;4.40;;;;;;;;;;4993500;28;20045;-69
2023/12/19 13:54:27;;;;;;;9.65;4.28;;;;;;;;;;4992912;28;20029;-70
2023/12/19 13:57:13;;;;;;;8.90;3.47;;;;;;;;;;4993876;28;20034;-70
2023/12/19 13:59:59;;;;;;;13.60;5.00;;;;;;;;;;4993270;28;20033;-70
2023/12/19 14:02:44;;;;;;;9.77;3.53;;;;;;;;;;4992378;28;20492;-70
2023/12/19 14:05:30;;;;;;;15.18;4.05;;;;;;;;;;4993188;28;20026;-70
2023/12/19 14:08:18;;;;;;;10.98;3.97;;;;;;;;;;4990945;28;20026;-70
2023/12/19 14:11:04;;;;;;;12.07;3.95;;;;;;;;;;4993030;28;20435;-70
2023/12/19 14:13:51;;;;;;;12.57;4.15;;;;;;;;;;4992830;28;20109;-70
2023/12/19 14:16:37;;;;;;;12.10;4.57;;;;;;;;;;4992520;28;20073;-70
2023/12/19 14:19:22;;;;;;;15.15;3.70;;;;;;;;;;4993192;28;20030;-70
2023/12/19 14:22:08;;;;;;;9.38;4.05;;;;;;;;;;4993010;28;20027;-70
2023/12/19 14:24:54;;;;;;;10.63;3.35;;;;;;;;;;4992837;28;20496;-70
2023/12/19 14:27:40;;;;;;;10.23;3.78;;;;;;;;;;4992879;28;20057;-70
2023/12/19 14:30:25;;;;;;;17.65;4.35;;;;;;;;;;4994126;28;20034;-70
2023/12/19 14:33:11;;;;;;;19.80;4.30;;;;;;;;;;4995702;28;20069;-70
2023/12/19 14:35:57;;;;;;;16.08;4.50;;;;;;;;;;4997303;28;20476;-70
2023/12/19 14:38:43;;;;;;;7.22;3.90;;;;;;;;;;4997293;28;20022;-70
2023/12/19 14:41:29;;;;;;;14.68;3.97;;;;;;;;;;4996134;28;20380;-70
2023/12/19 14:44:15;;;;;;;10.23;3.05;;;;;;;;;;4995666;28;20510;-70
2023/12/19 14:47:00;;;;;;;7.68;2.70;;;;;;;;;;4995909;28;20062;-70
2023/12/19 14:49:46;;;;;;;7.75;1.98;;;;;;;;;;4997590;28;20029;-70
2023/12/19 14:52:33;;;;;;;4.18;1.52;;;;;;;;;;4982838;28;20141;-70
2023/12/19 14:55:19;;;;;;;9.30;4.10;;;;;;;;;;4995176;28;20058;-70
2023/12/19 14:58:07;;;;;;;5.32;1.38;;;;;;;;;;4997099;28;20070;-70
2023/12/19 15:00:53;;;;;;;5.38;2.03;;;;;;;;;;4996118;28;20533;-70
2023/12/19 15:03:38;;;;;;;5.35;1.95;;;;;;;;;;4995596;28;20022;-70
2023/12/19 15:06:25;;;;;;;2.95;1.45;;;;;;;;;;4996933;28;20023;-70
2023/12/19 15:09:11;;;;;;;3.17;1.90;;;;;;;;;;4989385;28;20111;-70
2023/12/19 15:11:58;;;;;;;1.77;0.90;;;;;;;;;;4989475;28;20026;-69
2023/12/19 15:14:44;;;;;;;2.75;1.15;;;;;;;;;;4992610;28;20119;-70
2023/12/19 15:17:29;;;;;;;1.73;1.33;;;;;;;;;;4991641;28;20030;-70
2023/12/19 15:20:15;;;;;;;3.55;1.20;;;;;;;;;;4989628;28;20030;-70
2023/12/19 15:23:06;;;;;;;4.53;1.73;;;;;;;;;;4991376;28;20408;-70
2023/12/19 15:25:52;;;;;;;2.92;1.42;;;;;;;;;;4983258;28;20028;-70
2023/12/19 15:28:37;;;;;;;5.47;1.38;;;;;;;;;;4989510;28;20023;-69
2023/12/19 15:31:23;;;;;;;1.45;1.00;;;;;;;;;;4992636;28;20018;-69
2023/12/19 15:34:09;;;;;;;3.83;1.80;;;;;;;;;;4992912;28;20411;-69
2023/12/19 15:36:55;;;;;;;1.13;0.88;;;;;;;;;;4993261;28;20026;-70
2023/12/19 15:39:41;;;;;;;4.85;1.33;;;;;;;;;;4990103;28;20030;-69
2023/12/19 15:42:27;;;;;;;3.67;1.65;;;;;;;;;;4989758;28;20018;-68
2023/12/19 15:45:12;;;;;;;2.55;1.10;;;;;;;;;;5001045;28;20408;-70
2023/12/19 15:48:00;;;;;;;3.25;1.45;;;;;;;;;;4992484;28;20034;-70
2023/12/19 15:50:46;;;;;;;6.55;1.55;;;;;;;;;;4993057;28;20036;-70
2023/12/19 15:53:32;;;;;;;5.18;1.23;;;;;;;;;;4991767;28;20923;-70
2023/12/19 15:56:25;;;;;;;3.90;1.40;;;;;;;;;;4988888;28;20027;-71
2023/12/19 15:59:11;;;;;;;2.72;1.20;;;;;;;;;;4984222;28;20157;-70
2023/12/19 16:01:56;;;;;;;1.90;1.20;;;;;;;;;;4991562;28;20109;-70
2023/12/19 16:04:43;;;;;;;7.38;1.80;;;;;;;;;;4992992;28;20092;-70
2023/12/19 16:07:29;;;;;;;2.85;1.00;;;;;;;;;;4990926;28;20026;-70
2023/12/19 16:10:16;;;;;;;1.95;1.10;;;;;;;;;;4994302;28;20027;-70
2023/12/19 16:13:02;;;;;;;4.45;1.20;;;;;;;;;;4992410;28;20022;-70
2023/12/19 16:15:48;;;;;;;3.28;1.17;;;;;;;;;;4991827;28;20076;-71
2023/12/19 16:18:34;;;;;;;2.08;1.08;;;;;;;;;;4993104;28;20027;-70
2023/12/19 16:21:20;;;;;;;1.60;1.13;;;;;;;;;;4990671;28;20065;-70
2023/12/19 16:24:06;;;;;;;3.47;1.10;;;;;;;;;;4993992;28;20030;-70
2023/12/19 16:26:52;;;;;;;9.55;2.03;;;;;;;;;;4992574;28;20026;-70
2023/12/19 16:29:37;;;;;;;2.95;1.00;;;;;;;;;;4990004;28;20038;-70